sensor_id;sensor_type;location;lat;lon;timestamp;P1;durP1;ratioP1;P2;durP2;ratioP2
41925;SDS011;27615;51.826;5.692;2022-10-12T00:01:21;3.03;;;1.60;;
41925;SDS011;27615;51.826;5.692;2022-10-12T00:03:47;5.10;;;1.85;;
41925;SDS011;27615;51.826;5.692;2022-10-12T00:06:14;2.97;;;1.50;;
41925;SDS011;27615;51.826;5.692;2022-10-12T00:08:44;1.90;;;1.08;;
41925;SDS011;27615;51.826;5.692;2022-10-12T00:11:12;1.90;;;0.98;;
41925;SDS011;27615;51.826;5.692;2022-10-12T00:13:40;2.45;;;1.10;;
41925;SDS011;27615;51.826;5.692;2022-10-12T00:16:06;3.10;;;1.13;;
41925;SDS011;27615;51.826;5.692;2022-10-12T00:18:33;2.75;;;1.38;;
41925;SDS011;27615;51.826;5.692;2022-10-12T00:21:03;2.60;;;1.33;;
41925;SDS011;27615;51.826;5.692;2022-10-12T00:23:30;3.78;;;1.67;;
41925;SDS011;27615;51.826;5.692;2022-10-12T00:25:55;4.53;;;1.48;;
41925;SDS011;27615;51.826;5.692;2022-10-12T00:28:24;4.17;;;1.73;;
41925;SDS011;27615;51.826;5.692;2022-10-12T00:30:50;3.50;;;1.75;;
41925;SDS011;27615;51.826;5.692;2022-10-12T00:33:15;3.45;;;1.67;;
41925;SDS011;27615;51.826;5.692;2022-10-12T00:35:41;3.35;;;1.45;;
41925;SDS011;27615;51.826;5.692;2022-10-12T00:38:06;3.65;;;1.73;;
41925;SDS011;27615;51.826;5.692;2022-10-12T00:40:32;3.92;;;1.27;;
41925;SDS011;27615;51.826;5.692;2022-10-12T00:42:57;4.15;;;1.77;;
41925;SDS011;27615;51.826;5.692;2022-10-12T00:45:23;3.83;;;1.60;;
41925;SDS011;27615;51.826;5.692;2022-10-12T00:47:51;3.38;;;1.60;;
41925;SDS011;27615;51.826;5.692;2022-10-12T00:50:21;6.82;;;1.90;;
41925;SDS011;27615;51.826;5.692;2022-10-12T00:52:54;4.35;;;1.88;;
41925;SDS011;27615;51.826;5.692;2022-10-12T00:55:24;3.28;;;1.92;;
41925;SDS011;27615;51.826;5.692;2022-10-12T00:57:52;3.75;;;1.48;;
41925;SDS011;27615;51.826;5.692;2022-10-12T01:00:19;2.72;;;1.50;;
41925;SDS011;27615;51.826;5.692;2022-10-12T01:02:46;4.30;;;1.80;;
41925;SDS011;27615;51.826;5.692;2022-10-12T01:05:14;4.78;;;2.00;;
41925;SDS011;27615;51.826;5.692;2022-10-12T01:07:41;3.40;;;1.90;;
41925;SDS011;27615;51.826;5.692;2022-10-12T01:10:06;2.00;;;1.40;;
41925;SDS011;27615;51.826;5.692;2022-10-12T01:12:32;3.22;;;1.88;;
41925;SDS011;27615;51.826;5.692;2022-10-12T01:14:59;4.45;;;1.60;;
41925;SDS011;27615;51.826;5.692;2022-10-12T01:28:23;3.20;;;1.38;;
41925;SDS011;27615;51.826;5.692;2022-10-12T01:31:01;3.10;;;1.10;;
41925;SDS011;27615;51.826;5.692;2022-10-12T01:33:35;2.10;;;1.23;;
41925;SDS011;27615;51.826;5.692;2022-10-12T01:36:13;5.05;;;1.25;;
41925;SDS011;27615;51.826;5.692;2022-10-12T01:38:47;4.43;;;1.20;;
41925;SDS011;27615;51.826;5.692;2022-10-12T01:41:30;4.28;;;1.27;;
41925;SDS011;27615;51.826;5.692;2022-10-12T01:44:00;3.13;;;1.27;;
41925;SDS011;27615;51.826;5.692;2022-10-12T01:48:52;3.08;;;1.67;;
41925;SDS011;27615;51.826;5.692;2022-10-12T01:51:31;3.20;;;1.60;;
41925;SDS011;27615;51.826;5.692;2022-10-12T01:54:23;2.67;;;1.10;;
41925;SDS011;27615;51.826;5.692;2022-10-12T02:02:25;2.33;;;1.25;;
41925;SDS011;27615;51.826;5.692;2022-10-12T02:05:04;4.05;;;1.42;;
41925;SDS011;27615;51.826;5.692;2022-10-12T02:07:48;3.28;;;1.75;;
41925;SDS011;27615;51.826;5.692;2022-10-12T02:10:27;2.78;;;1.50;;
41925;SDS011;27615;51.826;5.692;2022-10-12T02:12:59;6.43;;;1.73;;
41925;SDS011;27615;51.826;5.692;2022-10-12T02:15:30;1.73;;;1.25;;
41925;SDS011;27615;51.826;5.692;2022-10-12T02:17:57;5.20;;;1.30;;
41925;SDS011;27615;51.826;5.692;2022-10-12T02:20:26;3.55;;;1.38;;
41925;SDS011;27615;51.826;5.692;2022-10-12T02:22:52;2.03;;;1.20;;
41925;SDS011;27615;51.826;5.692;2022-10-12T02:25:19;4.03;;;1.80;;
41925;SDS011;27615;51.826;5.692;2022-10-12T02:27:50;4.63;;;1.63;;
41925;SDS011;27615;51.826;5.692;2022-10-12T02:30:21;3.70;;;1.73;;
41925;SDS011;27615;51.826;5.692;2022-10-12T02:32:52;3.55;;;1.60;;
41925;SDS011;27615;51.826;5.692;2022-10-12T02:35:40;3.53;;;1.50;;
41925;SDS011;27615;51.826;5.692;2022-10-12T02:38:15;3.15;;;1.77;;
41925;SDS011;27615;51.826;5.692;2022-10-12T02:40:49;3.90;;;1.50;;
41925;SDS011;27615;51.826;5.692;2022-10-12T02:43:20;3.33;;;1.25;;
41925;SDS011;27615;51.826;5.692;2022-10-12T02:45:47;2.72;;;1.40;;
41925;SDS011;27615;51.826;5.692;2022-10-12T02:48:15;3.45;;;1.42;;
41925;SDS011;27615;51.826;5.692;2022-10-12T02:50:44;2.30;;;1.05;;
41925;SDS011;27615;51.826;5.692;2022-10-12T02:53:11;2.45;;;1.30;;
41925;SDS011;27615;51.826;5.692;2022-10-12T02:55:38;2.60;;;1.27;;
41925;SDS011;27615;51.826;5.692;2022-10-12T02:58:12;2.05;;;1.13;;
41925;SDS011;27615;51.826;5.692;2022-10-12T03:00:38;3.15;;;1.30;;
41925;SDS011;27615;51.826;5.692;2022-10-12T03:03:03;2.63;;;1.20;;
41925;SDS011;27615;51.826;5.692;2022-10-12T03:05:29;3.65;;;1.20;;
41925;SDS011;27615;51.826;5.692;2022-10-12T03:07:54;3.53;;;1.20;;
41925;SDS011;27615;51.826;5.692;2022-10-12T03:10:20;2.22;;;1.00;;
41925;SDS011;27615;51.826;5.692;2022-10-12T03:12:45;2.15;;;0.98;;
41925;SDS011;27615;51.826;5.692;2022-10-12T03:15:11;2.42;;;1.17;;
41925;SDS011;27615;51.826;5.692;2022-10-12T03:17:36;3.05;;;1.30;;
41925;SDS011;27615;51.826;5.692;2022-10-12T03:20:02;1.88;;;1.20;;
41925;SDS011;27615;51.826;5.692;2022-10-12T03:22:28;2.45;;;1.45;;
41925;SDS011;27615;51.826;5.692;2022-10-12T03:24:53;2.28;;;1.23;;
41925;SDS011;27615;51.826;5.692;2022-10-12T03:27:19;2.10;;;1.15;;
41925;SDS011;27615;51.826;5.692;2022-10-12T03:29:44;5.25;;;1.75;;
41925;SDS011;27615;51.826;5.692;2022-10-12T03:32:10;4.10;;;1.60;;
41925;SDS011;27615;51.826;5.692;2022-10-12T03:34:35;3.83;;;1.70;;
41925;SDS011;27615;51.826;5.692;2022-10-12T03:37:01;2.58;;;1.33;;
41925;SDS011;27615;51.826;5.692;2022-10-12T03:39:26;2.75;;;1.40;;
41925;SDS011;27615;51.826;5.692;2022-10-12T03:41:52;3.85;;;1.48;;
41925;SDS011;27615;51.826;5.692;2022-10-12T03:44:17;2.15;;;1.15;;
41925;SDS011;27615;51.826;5.692;2022-10-12T03:46:43;1.70;;;1.33;;
41925;SDS011;27615;51.826;5.692;2022-10-12T03:49:08;2.35;;;1.10;;
41925;SDS011;27615;51.826;5.692;2022-10-12T03:51:34;2.30;;;1.20;;
41925;SDS011;27615;51.826;5.692;2022-10-12T03:53:59;3.10;;;1.15;;
41925;SDS011;27615;51.826;5.692;2022-10-12T03:56:25;2.60;;;1.23;;
41925;SDS011;27615;51.826;5.692;2022-10-12T03:58:50;3.72;;;1.67;;
41925;SDS011;27615;51.826;5.692;2022-10-12T04:01:16;2.17;;;1.42;;
41925;SDS011;27615;51.826;5.692;2022-10-12T04:03:41;2.08;;;1.33;;
41925;SDS011;27615;51.826;5.692;2022-10-12T04:06:07;3.08;;;1.33;;
41925;SDS011;27615;51.826;5.692;2022-10-12T04:08:32;3.33;;;1.00;;
41925;SDS011;27615;51.826;5.692;2022-10-12T04:10:58;3.30;;;1.10;;
41925;SDS011;27615;51.826;5.692;2022-10-12T04:13:23;2.80;;;1.23;;
41925;SDS011;27615;51.826;5.692;2022-10-12T04:15:49;2.65;;;1.10;;
41925;SDS011;27615;51.826;5.692;2022-10-12T04:18:14;4.40;;;1.40;;
41925;SDS011;27615;51.826;5.692;2022-10-12T04:20:40;2.38;;;1.30;;
41925;SDS011;27615;51.826;5.692;2022-10-12T04:23:06;2.20;;;1.00;;
41925;SDS011;27615;51.826;5.692;2022-10-12T04:25:32;1.98;;;1.20;;
41925;SDS011;27615;51.826;5.692;2022-10-12T04:27:57;3.95;;;1.27;;
41925;SDS011;27615;51.826;5.692;2022-10-12T04:30:23;2.63;;;1.40;;
41925;SDS011;27615;51.826;5.692;2022-10-12T04:32:48;2.33;;;1.02;;
41925;SDS011;27615;51.826;5.692;2022-10-12T04:35:16;3.88;;;0.98;;
41925;SDS011;27615;51.826;5.692;2022-10-12T04:37:41;1.58;;;0.90;;
41925;SDS011;27615;51.826;5.692;2022-10-12T04:40:07;1.38;;;0.80;;
41925;SDS011;27615;51.826;5.692;2022-10-12T04:42:33;1.10;;;0.73;;
41925;SDS011;27615;51.826;5.692;2022-10-12T04:44:58;1.40;;;0.90;;
41925;SDS011;27615;51.826;5.692;2022-10-12T04:47:24;1.40;;;0.88;;
41925;SDS011;27615;51.826;5.692;2022-10-12T04:49:49;1.90;;;1.02;;
41925;SDS011;27615;51.826;5.692;2022-10-12T04:52:15;3.15;;;0.85;;
41925;SDS011;27615;51.826;5.692;2022-10-12T04:54:40;2.40;;;1.08;;
41925;SDS011;27615;51.826;5.692;2022-10-12T04:57:06;2.30;;;1.08;;
41925;SDS011;27615;51.826;5.692;2022-10-12T04:59:31;2.42;;;1.00;;
41925;SDS011;27615;51.826;5.692;2022-10-12T05:01:57;2.15;;;1.20;;
41925;SDS011;27615;51.826;5.692;2022-10-12T05:04:22;2.90;;;1.05;;
41925;SDS011;27615;51.826;5.692;2022-10-12T05:06:48;2.78;;;1.15;;
41925;SDS011;27615;51.826;5.692;2022-10-12T05:09:13;2.20;;;1.20;;
41925;SDS011;27615;51.826;5.692;2022-10-12T05:11:39;2.00;;;1.00;;
41925;SDS011;27615;51.826;5.692;2022-10-12T05:14:04;2.97;;;1.13;;
41925;SDS011;27615;51.826;5.692;2022-10-12T05:16:30;2.13;;;1.10;;
41925;SDS011;27615;51.826;5.692;2022-10-12T05:18:55;3.22;;;1.00;;
41925;SDS011;27615;51.826;5.692;2022-10-12T05:21:21;1.70;;;1.00;;
41925;SDS011;27615;51.826;5.692;2022-10-12T05:23:50;4.60;;;1.30;;
41925;SDS011;27615;51.826;5.692;2022-10-12T05:26:16;4.38;;;1.15;;
41925;SDS011;27615;51.826;5.692;2022-10-12T05:28:42;4.13;;;1.20;;
41925;SDS011;27615;51.826;5.692;2022-10-12T05:31:07;2.70;;;1.50;;
41925;SDS011;27615;51.826;5.692;2022-10-12T05:33:33;4.18;;;1.38;;
41925;SDS011;27615;51.826;5.692;2022-10-12T05:35:58;3.42;;;1.08;;
41925;SDS011;27615;51.826;5.692;2022-10-12T05:38:24;3.30;;;1.55;;
41925;SDS011;27615;51.826;5.692;2022-10-12T05:40:50;3.20;;;1.00;;
41925;SDS011;27615;51.826;5.692;2022-10-12T05:43:15;3.78;;;1.15;;
41925;SDS011;27615;51.826;5.692;2022-10-12T05:45:42;2.65;;;1.23;;
41925;SDS011;27615;51.826;5.692;2022-10-12T05:48:07;6.72;;;1.70;;
41925;SDS011;27615;51.826;5.692;2022-10-12T05:50:33;3.42;;;1.20;;
41925;SDS011;27615;51.826;5.692;2022-10-12T05:52:58;3.25;;;1.50;;
41925;SDS011;27615;51.826;5.692;2022-10-12T05:55:24;2.67;;;1.00;;
41925;SDS011;27615;51.826;5.692;2022-10-12T05:57:50;2.25;;;0.93;;
41925;SDS011;27615;51.826;5.692;2022-10-12T06:00:15;5.00;;;1.27;;
41925;SDS011;27615;51.826;5.692;2022-10-12T06:02:41;2.63;;;1.27;;
41925;SDS011;27615;51.826;5.692;2022-10-12T06:05:07;1.83;;;0.98;;
41925;SDS011;27615;51.826;5.692;2022-10-12T06:07:32;3.53;;;1.00;;
41925;SDS011;27615;51.826;5.692;2022-10-12T06:09:58;2.50;;;0.98;;
41925;SDS011;27615;51.826;5.692;2022-10-12T06:12:24;2.70;;;0.98;;
41925;SDS011;27615;51.826;5.692;2022-10-12T06:14:50;4.03;;;1.17;;
41925;SDS011;27615;51.826;5.692;2022-10-12T06:17:16;4.03;;;1.05;;
41925;SDS011;27615;51.826;5.692;2022-10-12T06:19:42;2.33;;;1.10;;
41925;SDS011;27615;51.826;5.692;2022-10-12T06:22:07;3.60;;;1.00;;
41925;SDS011;27615;51.826;5.692;2022-10-12T06:24:33;2.92;;;1.27;;
41925;SDS011;27615;51.826;5.692;2022-10-12T06:26:58;2.33;;;1.10;;
41925;SDS011;27615;51.826;5.692;2022-10-12T06:29:24;2.20;;;0.80;;
41925;SDS011;27615;51.826;5.692;2022-10-12T06:31:50;2.83;;;1.00;;
41925;SDS011;27615;51.826;5.692;2022-10-12T06:34:15;3.10;;;0.95;;
41925;SDS011;27615;51.826;5.692;2022-10-12T06:36:41;3.22;;;1.25;;
41925;SDS011;27615;51.826;5.692;2022-10-12T06:39:07;3.72;;;1.23;;
41925;SDS011;27615;51.826;5.692;2022-10-12T06:41:33;3.72;;;0.95;;
41925;SDS011;27615;51.826;5.692;2022-10-12T06:43:59;2.42;;;0.90;;
41925;SDS011;27615;51.826;5.692;2022-10-12T06:46:24;3.10;;;0.90;;
41925;SDS011;27615;51.826;5.692;2022-10-12T06:48:50;2.28;;;0.80;;
41925;SDS011;27615;51.826;5.692;2022-10-12T06:51:15;1.63;;;0.80;;
41925;SDS011;27615;51.826;5.692;2022-10-12T06:53:41;2.22;;;0.90;;
41925;SDS011;27615;51.826;5.692;2022-10-12T06:56:07;2.90;;;1.10;;
41925;SDS011;27615;51.826;5.692;2022-10-12T06:58:33;3.63;;;1.20;;
41925;SDS011;27615;51.826;5.692;2022-10-12T07:01:03;3.80;;;1.50;;
41925;SDS011;27615;51.826;5.692;2022-10-12T07:06:03;2.65;;;0.88;;
41925;SDS011;27615;51.826;5.692;2022-10-12T07:08:32;2.47;;;1.05;;
41925;SDS011;27615;51.826;5.692;2022-10-12T07:11:02;2.40;;;1.10;;
41925;SDS011;27615;51.826;5.692;2022-10-12T07:13:28;1.50;;;1.10;;
41925;SDS011;27615;51.826;5.692;2022-10-12T07:15:55;4.53;;;1.33;;
41925;SDS011;27615;51.826;5.692;2022-10-12T07:18:20;3.13;;;1.17;;
41925;SDS011;27615;51.826;5.692;2022-10-12T07:20:46;2.70;;;1.30;;
41925;SDS011;27615;51.826;5.692;2022-10-12T07:23:12;4.57;;;2.20;;
41925;SDS011;27615;51.826;5.692;2022-10-12T07:25:37;10.18;;;3.45;;
41925;SDS011;27615;51.826;5.692;2022-10-12T07:28:03;8.77;;;4.05;;
41925;SDS011;27615;51.826;5.692;2022-10-12T07:30:30;11.68;;;5.32;;
41925;SDS011;27615;51.826;5.692;2022-10-12T07:32:56;10.32;;;5.30;;
41925;SDS011;27615;51.826;5.692;2022-10-12T07:35:21;8.52;;;4.88;;
41925;SDS011;27615;51.826;5.692;2022-10-12T07:37:47;14.25;;;6.20;;
41925;SDS011;27615;51.826;5.692;2022-10-12T07:40:13;10.80;;;5.65;;
41925;SDS011;27615;51.826;5.692;2022-10-12T07:42:39;12.00;;;6.25;;
41925;SDS011;27615;51.826;5.692;2022-10-12T07:45:05;12.15;;;6.22;;
41925;SDS011;27615;51.826;5.692;2022-10-12T07:47:31;12.70;;;6.25;;
41925;SDS011;27615;51.826;5.692;2022-10-12T07:49:56;11.25;;;6.65;;
41925;SDS011;27615;51.826;5.692;2022-10-12T07:52:22;14.15;;;5.40;;
41925;SDS011;27615;51.826;5.692;2022-10-12T07:54:47;8.85;;;5.22;;
41925;SDS011;27615;51.826;5.692;2022-10-12T07:57:13;8.25;;;4.60;;
41925;SDS011;27615;51.826;5.692;2022-10-12T07:59:38;15.15;;;7.60;;
41925;SDS011;27615;51.826;5.692;2022-10-12T08:02:04;13.57;;;7.57;;
41925;SDS011;27615;51.826;5.692;2022-10-12T08:04:29;16.38;;;8.43;;
41925;SDS011;27615;51.826;5.692;2022-10-12T08:06:55;16.25;;;8.00;;
41925;SDS011;27615;51.826;5.692;2022-10-12T08:09:22;14.90;;;9.05;;
41925;SDS011;27615;51.826;5.692;2022-10-12T08:11:47;13.25;;;7.50;;
41925;SDS011;27615;51.826;5.692;2022-10-12T08:14:14;17.88;;;8.98;;
41925;SDS011;27615;51.826;5.692;2022-10-12T08:16:40;10.68;;;6.80;;
41925;SDS011;27615;51.826;5.692;2022-10-12T08:19:06;14.40;;;8.65;;
41925;SDS011;27615;51.826;5.692;2022-10-12T08:21:32;20.40;;;10.35;;
41925;SDS011;27615;51.826;5.692;2022-10-12T08:23:58;13.38;;;9.10;;
41925;SDS011;27615;51.826;5.692;2022-10-12T08:26:23;19.33;;;9.82;;
41925;SDS011;27615;51.826;5.692;2022-10-12T08:28:49;14.63;;;8.23;;
41925;SDS011;27615;51.826;5.692;2022-10-12T08:31:14;12.27;;;8.20;;
41925;SDS011;27615;51.826;5.692;2022-10-12T08:33:41;10.95;;;7.60;;
41925;SDS011;27615;51.826;5.692;2022-10-12T08:36:07;17.98;;;9.55;;
41925;SDS011;27615;51.826;5.692;2022-10-12T08:38:35;11.43;;;6.57;;
41925;SDS011;27615;51.826;5.692;2022-10-12T08:41:06;11.93;;;7.03;;
41925;SDS011;27615;51.826;5.692;2022-10-12T08:44:26;11.95;;;6.80;;
41925;SDS011;27615;51.826;5.692;2022-10-12T08:46:47;8.88;;;5.30;;
41925;SDS011;27615;51.826;5.692;2022-10-12T08:49:15;7.75;;;5.22;;
41925;SDS011;27615;51.826;5.692;2022-10-12T08:51:49;16.60;;;7.70;;
41925;SDS011;27615;51.826;5.692;2022-10-12T08:54:18;10.35;;;5.90;;
41925;SDS011;27615;51.826;5.692;2022-10-12T08:56:47;8.80;;;5.70;;
41925;SDS011;27615;51.826;5.692;2022-10-12T08:59:13;7.38;;;5.18;;
41925;SDS011;27615;51.826;5.692;2022-10-12T09:07:30;18.95;;;11.05;;
41925;SDS011;27615;51.826;5.692;2022-10-12T09:12:56;16.00;;;10.48;;
41925;SDS011;27615;51.826;5.692;2022-10-12T09:17:56;13.63;;;7.82;;
41925;SDS011;27615;51.826;5.692;2022-10-12T09:20:28;9.90;;;6.53;;
41925;SDS011;27615;51.826;5.692;2022-10-12T09:23:19;11.13;;;6.13;;
41925;SDS011;27615;51.826;5.692;2022-10-12T09:25:49;19.50;;;9.10;;
41925;SDS011;27615;51.826;5.692;2022-10-12T09:31:04;20.00;;;10.95;;
41925;SDS011;27615;51.826;5.692;2022-10-12T09:33:42;17.15;;;10.30;;
41925;SDS011;27615;51.826;5.692;2022-10-12T09:36:14;17.80;;;10.75;;
41925;SDS011;27615;51.826;5.692;2022-10-12T09:38:44;20.08;;;10.38;;
41925;SDS011;27615;51.826;5.692;2022-10-12T09:41:23;15.93;;;8.77;;
41925;SDS011;27615;51.826;5.692;2022-10-12T09:43:54;19.33;;;9.25;;
41925;SDS011;27615;51.826;5.692;2022-10-12T09:49:06;16.63;;;8.20;;
41925;SDS011;27615;51.826;5.692;2022-10-12T09:51:32;15.15;;;8.35;;
41925;SDS011;27615;51.826;5.692;2022-10-12T09:53:59;15.35;;;7.00;;
41925;SDS011;27615;51.826;5.692;2022-10-12T09:56:36;15.45;;;9.50;;
41925;SDS011;27615;51.826;5.692;2022-10-12T09:59:06;13.93;;;7.75;;
41925;SDS011;27615;51.826;5.692;2022-10-12T10:02:03;13.05;;;7.70;;
41925;SDS011;27615;51.826;5.692;2022-10-12T10:04:35;16.80;;;9.63;;
41925;SDS011;27615;51.826;5.692;2022-10-12T10:12:49;10.57;;;5.90;;
41925;SDS011;27615;51.826;5.692;2022-10-12T10:15:23;12.68;;;7.05;;
41925;SDS011;27615;51.826;5.692;2022-10-12T10:17:57;13.00;;;6.45;;
41925;SDS011;27615;51.826;5.692;2022-10-12T10:20:28;11.57;;;6.00;;
41925;SDS011;27615;51.826;5.692;2022-10-12T10:22:56;11.63;;;5.75;;
41925;SDS011;27615;51.826;5.692;2022-10-12T10:25:23;11.88;;;6.10;;
41925;SDS011;27615;51.826;5.692;2022-10-12T10:27:50;12.13;;;6.72;;
41925;SDS011;27615;51.826;5.692;2022-10-12T10:30:35;15.95;;;7.63;;
41925;SDS011;27615;51.826;5.692;2022-10-12T10:33:15;10.68;;;5.93;;
41925;SDS011;27615;51.826;5.692;2022-10-12T10:35:52;9.63;;;6.80;;
41925;SDS011;27615;51.826;5.692;2022-10-12T10:38:20;11.15;;;6.88;;
41925;SDS011;27615;51.826;5.692;2022-10-12T10:40:50;12.35;;;6.25;;
41925;SDS011;27615;51.826;5.692;2022-10-12T10:43:19;11.77;;;6.95;;
41925;SDS011;27615;51.826;5.692;2022-10-12T10:45:49;11.80;;;6.20;;
41925;SDS011;27615;51.826;5.692;2022-10-12T10:48:18;10.40;;;6.18;;
41925;SDS011;27615;51.826;5.692;2022-10-12T10:50:50;9.68;;;5.45;;
41925;SDS011;27615;51.826;5.692;2022-10-12T10:53:21;10.88;;;6.53;;
41925;SDS011;27615;51.826;5.692;2022-10-12T10:58:56;6.85;;;4.38;;
41925;SDS011;27615;51.826;5.692;2022-10-12T11:01:32;7.10;;;4.22;;
41925;SDS011;27615;51.826;5.692;2022-10-12T11:04:06;7.32;;;4.55;;
41925;SDS011;27615;51.826;5.692;2022-10-12T11:09:10;6.70;;;4.97;;
41925;SDS011;27615;51.826;5.692;2022-10-12T11:11:40;9.77;;;5.68;;
41925;SDS011;27615;51.826;5.692;2022-10-12T11:14:14;7.90;;;4.30;;
41925;SDS011;27615;51.826;5.692;2022-10-12T11:16:53;7.53;;;4.22;;
41925;SDS011;27615;51.826;5.692;2022-10-12T11:19:39;8.00;;;5.10;;
41925;SDS011;27615;51.826;5.692;2022-10-12T11:22:09;11.70;;;6.65;;
41925;SDS011;27615;51.826;5.692;2022-10-12T11:24:42;10.20;;;6.78;;
41925;SDS011;27615;51.826;5.692;2022-10-12T11:27:13;10.98;;;7.57;;
41925;SDS011;27615;51.826;5.692;2022-10-12T11:29:44;9.77;;;6.13;;
41925;SDS011;27615;51.826;5.692;2022-10-12T11:34:54;11.60;;;5.88;;
41925;SDS011;27615;51.826;5.692;2022-10-12T11:37:35;10.60;;;7.53;;
41925;SDS011;27615;51.826;5.692;2022-10-12T11:40:19;10.73;;;7.13;;
41925;SDS011;27615;51.826;5.692;2022-10-12T11:42:47;12.85;;;8.02;;
41925;SDS011;27615;51.826;5.692;2022-10-12T11:45:22;9.93;;;6.60;;
41925;SDS011;27615;51.826;5.692;2022-10-12T11:47:54;10.90;;;7.47;;
41925;SDS011;27615;51.826;5.692;2022-10-12T11:50:33;12.05;;;8.07;;
41925;SDS011;27615;51.826;5.692;2022-10-12T11:53:02;14.38;;;8.43;;
41925;SDS011;27615;51.826;5.692;2022-10-12T11:58:05;11.20;;;8.18;;
41925;SDS011;27615;51.826;5.692;2022-10-12T12:11:28;14.55;;;9.05;;
41925;SDS011;27615;51.826;5.692;2022-10-12T12:16:49;17.58;;;10.00;;
41925;SDS011;27615;51.826;5.692;2022-10-12T12:19:40;17.38;;;10.05;;
41925;SDS011;27615;51.826;5.692;2022-10-12T12:22:20;15.50;;;9.88;;
41925;SDS011;27615;51.826;5.692;2022-10-12T12:27:22;15.85;;;9.02;;
41925;SDS011;27615;51.826;5.692;2022-10-12T12:29:57;12.45;;;7.22;;
41925;SDS011;27615;51.826;5.692;2022-10-12T12:32:24;17.92;;;10.77;;
41925;SDS011;27615;51.826;5.692;2022-10-12T12:35:03;17.98;;;11.15;;
41925;SDS011;27615;51.826;5.692;2022-10-12T12:37:30;16.17;;;11.00;;
41925;SDS011;27615;51.826;5.692;2022-10-12T12:42:27;16.50;;;11.40;;
41925;SDS011;27615;51.826;5.692;2022-10-12T12:45:06;17.88;;;10.93;;
41925;SDS011;27615;51.826;5.692;2022-10-12T12:48:06;21.27;;;11.80;;
41925;SDS011;27615;51.826;5.692;2022-10-12T12:50:35;17.00;;;11.60;;
41925;SDS011;27615;51.826;5.692;2022-10-12T12:53:05;17.48;;;11.25;;
41925;SDS011;27615;51.826;5.692;2022-10-12T12:55:48;15.45;;;9.70;;
41925;SDS011;27615;51.826;5.692;2022-10-12T13:01:42;16.10;;;9.57;;
41925;SDS011;27615;51.826;5.692;2022-10-12T13:08:22;18.67;;;9.00;;
41925;SDS011;27615;51.826;5.692;2022-10-12T13:10:24;16.30;;;10.02;;
41925;SDS011;27615;51.826;5.692;2022-10-12T13:13:17;17.05;;;10.43;;
41925;SDS011;27615;51.826;5.692;2022-10-12T13:19:10;13.80;;;8.65;;
41925;SDS011;27615;51.826;5.692;2022-10-12T13:21:38;19.73;;;9.88;;
41925;SDS011;27615;51.826;5.692;2022-10-12T13:24:12;11.05;;;7.35;;
41925;SDS011;27615;51.826;5.692;2022-10-12T13:29:15;14.73;;;7.38;;
41925;SDS011;27615;51.826;5.692;2022-10-12T13:32:01;12.40;;;7.45;;
41925;SDS011;27615;51.826;5.692;2022-10-12T13:34:40;16.02;;;8.07;;
41925;SDS011;27615;51.826;5.692;2022-10-12T13:37:13;13.32;;;7.55;;
41925;SDS011;27615;51.826;5.692;2022-10-12T13:39:40;14.63;;;7.20;;
41925;SDS011;27615;51.826;5.692;2022-10-12T13:42:09;13.98;;;6.10;;
41925;SDS011;27615;51.826;5.692;2022-10-12T13:44:40;9.45;;;5.20;;
41925;SDS011;27615;51.826;5.692;2022-10-12T13:47:25;13.52;;;5.43;;
41925;SDS011;27615;51.826;5.692;2022-10-12T13:49:52;11.48;;;5.50;;
41925;SDS011;27615;51.826;5.692;2022-10-12T13:52:40;11.05;;;4.13;;
41925;SDS011;27615;51.826;5.692;2022-10-12T13:55:13;12.60;;;5.13;;
41925;SDS011;27615;51.826;5.692;2022-10-12T13:57:43;11.80;;;5.30;;
41925;SDS011;27615;51.826;5.692;2022-10-12T14:02:40;11.20;;;5.07;;
41925;SDS011;27615;51.826;5.692;2022-10-12T14:05:16;9.30;;;4.30;;
41925;SDS011;27615;51.826;5.692;2022-10-12T14:07:45;9.40;;;4.75;;
41925;SDS011;27615;51.826;5.692;2022-10-12T14:12:56;12.07;;;7.45;;
41925;SDS011;27615;51.826;5.692;2022-10-12T14:15:24;13.77;;;5.95;;
41925;SDS011;27615;51.826;5.692;2022-10-12T14:17:51;11.70;;;5.37;;
41925;SDS011;27615;51.826;5.692;2022-10-12T14:23:02;12.63;;;6.55;;
41925;SDS011;27615;51.826;5.692;2022-10-12T14:25:34;12.85;;;5.35;;
41925;SDS011;27615;51.826;5.692;2022-10-12T14:28:03;13.90;;;6.13;;
41925;SDS011;27615;51.826;5.692;2022-10-12T14:30:32;13.20;;;6.13;;
41925;SDS011;27615;51.826;5.692;2022-10-12T14:33:34;12.02;;;6.82;;
41925;SDS011;27615;51.826;5.692;2022-10-12T14:38:49;12.98;;;7.03;;
41925;SDS011;27615;51.826;5.692;2022-10-12T14:41:29;14.77;;;6.78;;
41925;SDS011;27615;51.826;5.692;2022-10-12T14:46:33;14.68;;;7.90;;
41925;SDS011;27615;51.826;5.692;2022-10-12T14:48:59;12.48;;;6.85;;
41925;SDS011;27615;51.826;5.692;2022-10-12T14:51:24;10.02;;;6.10;;
41925;SDS011;27615;51.826;5.692;2022-10-12T14:53:57;12.07;;;6.43;;
41925;SDS011;27615;51.826;5.692;2022-10-12T14:56:23;12.82;;;6.35;;
41925;SDS011;27615;51.826;5.692;2022-10-12T14:58:49;13.95;;;5.88;;
41925;SDS011;27615;51.826;5.692;2022-10-12T15:01:14;11.43;;;6.18;;
41925;SDS011;27615;51.826;5.692;2022-10-12T15:03:40;11.75;;;6.95;;
41925;SDS011;27615;51.826;5.692;2022-10-12T15:06:08;13.82;;;6.85;;
41925;SDS011;27615;51.826;5.692;2022-10-12T15:08:37;14.23;;;6.22;;
41925;SDS011;27615;51.826;5.692;2022-10-12T15:11:03;16.20;;;6.63;;
41925;SDS011;27615;51.826;5.692;2022-10-12T15:13:29;9.02;;;5.38;;
41925;SDS011;27615;51.826;5.692;2022-10-12T15:15:54;16.35;;;7.00;;
41925;SDS011;27615;51.826;5.692;2022-10-12T15:20:50;11.68;;;6.65;;
41925;SDS011;27615;51.826;5.692;2022-10-12T15:23:16;9.27;;;5.72;;
41925;SDS011;27615;51.826;5.692;2022-10-12T15:28:17;9.68;;;5.85;;
41925;SDS011;27615;51.826;5.692;2022-10-12T15:30:43;13.75;;;5.78;;
41925;SDS011;27615;51.826;5.692;2022-10-12T15:33:12;12.88;;;5.95;;
41925;SDS011;27615;51.826;5.692;2022-10-12T15:35:38;12.73;;;5.23;;
41925;SDS011;27615;51.826;5.692;2022-10-12T15:38:04;9.52;;;5.10;;
41925;SDS011;27615;51.826;5.692;2022-10-12T15:40:30;10.05;;;4.47;;
41925;SDS011;27615;51.826;5.692;2022-10-12T15:42:57;6.07;;;3.55;;
41925;SDS011;27615;51.826;5.692;2022-10-12T15:45:25;6.30;;;3.05;;
41925;SDS011;27615;51.826;5.692;2022-10-12T15:47:52;7.85;;;2.28;;
41925;SDS011;27615;51.826;5.692;2022-10-12T15:50:20;7.30;;;2.22;;
41925;SDS011;27615;51.826;5.692;2022-10-12T15:52:48;4.97;;;1.77;;
41925;SDS011;27615;51.826;5.692;2022-10-12T15:55:21;4.40;;;1.75;;
41925;SDS011;27615;51.826;5.692;2022-10-12T15:57:52;5.82;;;1.83;;
41925;SDS011;27615;51.826;5.692;2022-10-12T16:00:19;5.03;;;1.88;;
41925;SDS011;27615;51.826;5.692;2022-10-12T16:02:46;5.75;;;1.50;;
41925;SDS011;27615;51.826;5.692;2022-10-12T16:05:16;4.68;;;2.53;;
41925;SDS011;27615;51.826;5.692;2022-10-12T16:07:56;4.45;;;1.95;;
41925;SDS011;27615;51.826;5.692;2022-10-12T16:10:23;6.82;;;2.08;;
41925;SDS011;27615;51.826;5.692;2022-10-12T16:12:51;6.25;;;2.10;;
41925;SDS011;27615;51.826;5.692;2022-10-12T16:15:19;7.72;;;2.50;;
41925;SDS011;27615;51.826;5.692;2022-10-12T16:17:56;7.85;;;2.40;;
41925;SDS011;27615;51.826;5.692;2022-10-12T16:20:22;10.65;;;3.13;;
41925;SDS011;27615;51.826;5.692;2022-10-12T16:22:49;8.88;;;3.38;;
41925;SDS011;27615;51.826;5.692;2022-10-12T16:25:16;9.68;;;3.53;;
41925;SDS011;27615;51.826;5.692;2022-10-12T16:27:45;7.63;;;3.40;;
41925;SDS011;27615;51.826;5.692;2022-10-12T16:30:11;7.68;;;3.13;;
41925;SDS011;27615;51.826;5.692;2022-10-12T16:32:37;8.13;;;4.88;;
41925;SDS011;27615;51.826;5.692;2022-10-12T16:35:03;9.07;;;4.18;;
41925;SDS011;27615;51.826;5.692;2022-10-12T16:37:30;11.18;;;5.10;;
41925;SDS011;27615;51.826;5.692;2022-10-12T16:39:55;5.93;;;3.08;;